Coco River, Florida
Current Conditions -  °F | °C
As of 1:53 AM on Saturday 29 Nov 2014 (Local Time) from KAPF Reporting Station
Clear Clear  
Wind Chill: 52°   Ceiling: Unl
Heat Index: 52°   Visibility: 10mi
Dew Point: 45°   Wind: 8mph
Humidity: 77%   Direction: 30°NNE
Pressure: 30.21"   Gusts: NA
Location:  26.2451°N, 81.8067°W
Report Text: KAPF 290653Z AUTO 03007KT 10SM CLR 11/07 A3021 RMK AO2 SLP229 T01110072
Loading
Personal Weather Stations






























Interactive Weather Map New forecast layout! Learn more

10-Day Weather Forecast

Advertisements
Track Severe Weather on mobile